sensor_id;sensor_type;location;lat;lon;timestamp;temperature;humidity
83685;DHT22;73666;51.304;5.776;2023-12-20T00:02:37;6.70;82.00
83685;DHT22;73666;51.304;5.776;2023-12-20T00:07:40;6.70;81.70
83685;DHT22;73666;51.304;5.776;2023-12-20T00:12:41;6.60;81.60
83685;DHT22;73666;51.304;5.776;2023-12-20T00:17:41;6.40;81.60
83685;DHT22;73666;51.304;5.776;2023-12-20T00:22:42;6.30;81.50
83685;DHT22;73666;51.304;5.776;2023-12-20T00:27:43;6.20;81.70
83685;DHT22;73666;51.304;5.776;2023-12-20T00:32:44;6.20;81.90
83685;DHT22;73666;51.304;5.776;2023-12-20T00:37:47;6.00;81.40
83685;DHT22;73666;51.304;5.776;2023-12-20T00:42:48;5.80;81.20
83685;DHT22;73666;51.304;5.776;2023-12-20T00:47:49;5.60;81.20
83685;DHT22;73666;51.304;5.776;2023-12-20T00:52:49;5.50;81.20
83685;DHT22;73666;51.304;5.776;2023-12-20T00:57:51;5.30;81.30
83685;DHT22;73666;51.304;5.776;2023-12-20T01:02:54;5.30;81.40
83685;DHT22;73666;51.304;5.776;2023-12-20T01:07:55;5.30;81.80
83685;DHT22;73666;51.304;5.776;2023-12-20T01:12:56;5.20;81.50
83685;DHT22;73666;51.304;5.776;2023-12-20T01:17:57;5.00;81.40
83685;DHT22;73666;51.304;5.776;2023-12-20T01:22:59;5.00;81.40
83685;DHT22;73666;51.304;5.776;2023-12-20T01:28:00;4.90;81.40
83685;DHT22;73666;51.304;5.776;2023-12-20T01:33:01;4.80;81.40
83685;DHT22;73666;51.304;5.776;2023-12-20T01:38:02;4.70;81.40
83685;DHT22;73666;51.304;5.776;2023-12-20T01:43:07;4.70;81.50
83685;DHT22;73666;51.304;5.776;2023-12-20T01:48:09;4.60;81.50
83685;DHT22;73666;51.304;5.776;2023-12-20T01:53:12;4.50;81.40
83685;DHT22;73666;51.304;5.776;2023-12-20T01:58:13;4.50;81.30
83685;DHT22;73666;51.304;5.776;2023-12-20T02:03:16;4.40;81.40
83685;DHT22;73666;51.304;5.776;2023-12-20T02:08:17;4.40;81.50
83685;DHT22;73666;51.304;5.776;2023-12-20T02:13:18;4.50;82.00
83685;DHT22;73666;51.304;5.776;2023-12-20T02:18:18;4.50;81.70
83685;DHT22;73666;51.304;5.776;2023-12-20T02:23:19;4.40;81.50
83685;DHT22;73666;51.304;5.776;2023-12-20T02:28:20;4.40;81.80
83685;DHT22;73666;51.304;5.776;2023-12-20T02:33:23;4.50;82.20
83685;DHT22;73666;51.304;5.776;2023-12-20T02:38:23;4.70;82.30
83685;DHT22;73666;51.304;5.776;2023-12-20T02:43:24;4.70;82.00
83685;DHT22;73666;51.304;5.776;2023-12-20T02:48:25;4.60;81.60
83685;DHT22;73666;51.304;5.776;2023-12-20T02:53:25;4.50;82.00
83685;DHT22;73666;51.304;5.776;2023-12-20T02:58:26;4.70;82.10
83685;DHT22;73666;51.304;5.776;2023-12-20T03:03:27;4.70;82.10
83685;DHT22;73666;51.304;5.776;2023-12-20T03:08:30;4.70;81.80
83685;DHT22;73666;51.304;5.776;2023-12-20T03:13:31;4.50;81.60
83685;DHT22;73666;51.304;5.776;2023-12-20T03:18:32;4.50;81.90
83685;DHT22;73666;51.304;5.776;2023-12-20T03:23:33;4.50;82.00
83685;DHT22;73666;51.304;5.776;2023-12-20T03:28:34;4.40;81.80
83685;DHT22;73666;51.304;5.776;2023-12-20T03:33:35;4.30;81.70
83685;DHT22;73666;51.304;5.776;2023-12-20T03:38:35;4.20;81.80
83685;DHT22;73666;51.304;5.776;2023-12-20T03:43:36;4.20;81.70
83685;DHT22;73666;51.304;5.776;2023-12-20T03:48:37;4.10;81.60
83685;DHT22;73666;51.304;5.776;2023-12-20T03:53:38;4.00;81.70
83685;DHT22;73666;51.304;5.776;2023-12-20T03:58:41;4.00;81.70
83685;DHT22;73666;51.304;5.776;2023-12-20T04:03:41;3.90;81.60
83685;DHT22;73666;51.304;5.776;2023-12-20T04:08:42;3.90;81.60
83685;DHT22;73666;51.304;5.776;2023-12-20T04:13:43;3.90;81.90
83685;DHT22;73666;51.304;5.776;2023-12-20T04:18:43;3.90;81.90
83685;DHT22;73666;51.304;5.776;2023-12-20T04:23:44;4.00;82.20
83685;DHT22;73666;51.304;5.776;2023-12-20T04:28:45;4.20;82.40
83685;DHT22;73666;51.304;5.776;2023-12-20T04:33:45;4.40;82.40
83685;DHT22;73666;51.304;5.776;2023-12-20T04:38:46;4.50;82.40
83685;DHT22;73666;51.304;5.776;2023-12-20T04:43:47;4.70;82.40
83685;DHT22;73666;51.304;5.776;2023-12-20T04:48:48;4.70;82.30
83685;DHT22;73666;51.304;5.776;2023-12-20T04:53:48;4.80;82.30
83685;DHT22;73666;51.304;5.776;2023-12-20T04:58:49;4.90;82.20
83685;DHT22;73666;51.304;5.776;2023-12-20T05:03:50;4.90;82.20
83685;DHT22;73666;51.304;5.776;2023-12-20T05:08:50;5.00;82.20
83685;DHT22;73666;51.304;5.776;2023-12-20T05:13:51;5.00;82.10
83685;DHT22;73666;51.304;5.776;2023-12-20T05:18:52;5.00;82.10
83685;DHT22;73666;51.304;5.776;2023-12-20T05:23:53;5.00;82.20
83685;DHT22;73666;51.304;5.776;2023-12-20T05:28:54;5.00;82.00
83685;DHT22;73666;51.304;5.776;2023-12-20T05:33:54;5.10;82.00
83685;DHT22;73666;51.304;5.776;2023-12-20T05:38:55;5.10;82.00
83685;DHT22;73666;51.304;5.776;2023-12-20T05:43:56;5.10;81.90
83685;DHT22;73666;51.304;5.776;2023-12-20T05:48:58;5.20;81.90
83685;DHT22;73666;51.304;5.776;2023-12-20T05:53:59;5.30;81.80
83685;DHT22;73666;51.304;5.776;2023-12-20T05:59:01;5.30;81.80
83685;DHT22;73666;51.304;5.776;2023-12-20T06:04:03;5.30;81.70
83685;DHT22;73666;51.304;5.776;2023-12-20T06:09:04;5.30;81.70
83685;DHT22;73666;51.304;5.776;2023-12-20T06:14:05;5.30;81.70
83685;DHT22;73666;51.304;5.776;2023-12-20T06:19:05;5.30;81.60
83685;DHT22;73666;51.304;5.776;2023-12-20T06:24:06;5.40;81.60
83685;DHT22;73666;51.304;5.776;2023-12-20T06:29:11;5.30;81.40
83685;DHT22;73666;51.304;5.776;2023-12-20T06:34:12;5.30;81.50
83685;DHT22;73666;51.304;5.776;2023-12-20T06:39:13;5.30;81.40
83685;DHT22;73666;51.304;5.776;2023-12-20T06:44:14;5.20;81.40
83685;DHT22;73666;51.304;5.776;2023-12-20T06:49:15;5.10;81.30
83685;DHT22;73666;51.304;5.776;2023-12-20T06:54:16;4.90;81.20
83685;DHT22;73666;51.304;5.776;2023-12-20T06:59:17;4.70;81.30
83685;DHT22;73666;51.304;5.776;2023-12-20T07:04:17;4.50;81.40
83685;DHT22;73666;51.304;5.776;2023-12-20T07:09:21;4.40;81.50
83685;DHT22;73666;51.304;5.776;2023-12-20T07:14:22;4.30;81.60
83685;DHT22;73666;51.304;5.776;2023-12-20T07:19:22;4.20;81.60
83685;DHT22;73666;51.304;5.776;2023-12-20T07:24:23;4.20;81.70
83685;DHT22;73666;51.304;5.776;2023-12-20T07:29:24;4.10;81.70
83685;DHT22;73666;51.304;5.776;2023-12-20T07:34:24;4.10;81.80
83685;DHT22;73666;51.304;5.776;2023-12-20T07:39:25;4.10;81.80
83685;DHT22;73666;51.304;5.776;2023-12-20T07:44:26;4.00;81.80
83685;DHT22;73666;51.304;5.776;2023-12-20T07:49:27;4.00;81.70
83685;DHT22;73666;51.304;5.776;2023-12-20T07:54:27;4.00;81.90
83685;DHT22;73666;51.304;5.776;2023-12-20T07:59:28;4.10;82.10
83685;DHT22;73666;51.304;5.776;2023-12-20T08:04:30;4.40;82.40
83685;DHT22;73666;51.304;5.776;2023-12-20T08:09:31;4.50;82.20
83685;DHT22;73666;51.304;5.776;2023-12-20T08:14:32;4.70;81.80
83685;DHT22;73666;51.304;5.776;2023-12-20T08:19:33;4.90;81.50
83685;DHT22;73666;51.304;5.776;2023-12-20T08:24:33;5.00;81.30
83685;DHT22;73666;51.304;5.776;2023-12-20T08:29:34;5.00;81.20
83685;DHT22;73666;51.304;5.776;2023-12-20T08:34:35;5.10;81.10
83685;DHT22;73666;51.304;5.776;2023-12-20T08:39:35;5.20;81.10
83685;DHT22;73666;51.304;5.776;2023-12-20T08:44:36;5.30;80.90
83685;DHT22;73666;51.304;5.776;2023-12-20T08:49:37;5.30;80.80
83685;DHT22;73666;51.304;5.776;2023-12-20T08:54:40;5.40;80.70
83685;DHT22;73666;51.304;5.776;2023-12-20T08:59:44;5.50;80.50
83685;DHT22;73666;51.304;5.776;2023-12-20T09:04:45;5.50;80.40
83685;DHT22;73666;51.304;5.776;2023-12-20T09:09:51;5.50;80.40
83685;DHT22;73666;51.304;5.776;2023-12-20T09:14:52;5.60;80.30
83685;DHT22;73666;51.304;5.776;2023-12-20T09:19:53;5.60;80.10
83685;DHT22;73666;51.304;5.776;2023-12-20T09:24:54;5.60;80.10
83685;DHT22;73666;51.304;5.776;2023-12-20T09:29:55;5.80;79.80
83685;DHT22;73666;51.304;5.776;2023-12-20T09:34:55;6.00;79.70
83685;DHT22;73666;51.304;5.776;2023-12-20T09:39:56;6.10;79.50
83685;DHT22;73666;51.304;5.776;2023-12-20T09:44:58;6.20;79.40
83685;DHT22;73666;51.304;5.776;2023-12-20T09:50:02;6.30;79.40
83685;DHT22;73666;51.304;5.776;2023-12-20T09:55:04;6.30;79.40
83685;DHT22;73666;51.304;5.776;2023-12-20T10:00:06;6.30;79.40
83685;DHT22;73666;51.304;5.776;2023-12-20T10:05:08;6.30;79.30
83685;DHT22;73666;51.304;5.776;2023-12-20T10:10:11;6.30;79.40
83685;DHT22;73666;51.304;5.776;2023-12-20T10:15:13;6.40;79.40
83685;DHT22;73666;51.304;5.776;2023-12-20T10:20:13;6.50;79.00
83685;DHT22;73666;51.304;5.776;2023-12-20T10:25:15;6.50;79.20
83685;DHT22;73666;51.304;5.776;2023-12-20T10:30:16;6.50;79.00
83685;DHT22;73666;51.304;5.776;2023-12-20T10:35:16;6.60;79.10
83685;DHT22;73666;51.304;5.776;2023-12-20T10:40:18;6.60;79.00
83685;DHT22;73666;51.304;5.776;2023-12-20T10:45:18;6.70;79.10
83685;DHT22;73666;51.304;5.776;2023-12-20T10:50:19;6.70;79.10
83685;DHT22;73666;51.304;5.776;2023-12-20T10:55:22;6.80;78.80
83685;DHT22;73666;51.304;5.776;2023-12-20T11:00:23;6.70;78.80
83685;DHT22;73666;51.304;5.776;2023-12-20T11:15:51;6.80;78.70
83685;DHT22;73666;51.304;5.776;2023-12-20T11:20:54;6.80;78.80
83685;DHT22;73666;51.304;5.776;2023-12-20T11:25:57;6.80;78.70
83685;DHT22;73666;51.304;5.776;2023-12-20T11:31:01;6.80;78.60
83685;DHT22;73666;51.304;5.776;2023-12-20T11:36:03;6.80;78.60
83685;DHT22;73666;51.304;5.776;2023-12-20T11:41:06;6.90;78.70
83685;DHT22;73666;51.304;5.776;2023-12-20T11:46:08;7.00;78.50
83685;DHT22;73666;51.304;5.776;2023-12-20T11:51:13;7.00;78.50
83685;DHT22;73666;51.304;5.776;2023-12-20T11:56:13;7.00;78.50
83685;DHT22;73666;51.304;5.776;2023-12-20T12:01:14;7.00;78.50
83685;DHT22;73666;51.304;5.776;2023-12-20T12:06:15;7.20;78.40
83685;DHT22;73666;51.304;5.776;2023-12-20T12:11:16;7.30;78.30
83685;DHT22;73666;51.304;5.776;2023-12-20T12:16:20;7.50;78.20
83685;DHT22;73666;51.304;5.776;2023-12-20T12:21:21;7.50;77.80
83685;DHT22;73666;51.304;5.776;2023-12-20T12:26:25;7.40;78.10
83685;DHT22;73666;51.304;5.776;2023-12-20T12:31:28;7.40;78.20
83685;DHT22;73666;51.304;5.776;2023-12-20T12:36:29;7.40;78.30
83685;DHT22;73666;51.304;5.776;2023-12-20T12:41:30;7.30;78.50
83685;DHT22;73666;51.304;5.776;2023-12-20T12:46:31;7.20;78.50
83685;DHT22;73666;51.304;5.776;2023-12-20T12:51:33;7.20;78.60
83685;DHT22;73666;51.304;5.776;2023-12-20T12:56:41;7.20;78.60
83685;DHT22;73666;51.304;5.776;2023-12-20T13:01:42;7.40;78.50
83685;DHT22;73666;51.304;5.776;2023-12-20T13:06:42;7.50;78.30
83685;DHT22;73666;51.304;5.776;2023-12-20T13:11:43;7.50;78.20
83685;DHT22;73666;51.304;5.776;2023-12-20T13:16:44;7.50;78.20
83685;DHT22;73666;51.304;5.776;2023-12-20T13:21:46;7.60;78.10
83685;DHT22;73666;51.304;5.776;2023-12-20T13:26:46;7.60;78.10
83685;DHT22;73666;51.304;5.776;2023-12-20T13:31:49;7.50;78.00
83685;DHT22;73666;51.304;5.776;2023-12-20T13:36:49;7.60;78.10
83685;DHT22;73666;51.304;5.776;2023-12-20T13:41:51;7.60;78.10
83685;DHT22;73666;51.304;5.776;2023-12-20T13:46:52;7.70;78.00
83685;DHT22;73666;51.304;5.776;2023-12-20T13:51:53;7.60;78.10
83685;DHT22;73666;51.304;5.776;2023-12-20T13:56:55;7.60;78.20
83685;DHT22;73666;51.304;5.776;2023-12-20T14:01:58;7.70;78.20
83685;DHT22;73666;51.304;5.776;2023-12-20T14:06:59;7.80;78.20
83685;DHT22;73666;51.304;5.776;2023-12-20T14:12:00;7.80;78.10
83685;DHT22;73666;51.304;5.776;2023-12-20T14:17:01;7.60;78.40
83685;DHT22;73666;51.304;5.776;2023-12-20T14:22:02;7.50;78.50
83685;DHT22;73666;51.304;5.776;2023-12-20T14:27:05;7.50;78.70
83685;DHT22;73666;51.304;5.776;2023-12-20T14:32:05;7.50;78.80
83685;DHT22;73666;51.304;5.776;2023-12-20T14:37:06;7.40;78.80
83685;DHT22;73666;51.304;5.776;2023-12-20T14:42:10;7.40;78.80
83685;DHT22;73666;51.304;5.776;2023-12-20T14:47:14;7.40;78.80
83685;DHT22;73666;51.304;5.776;2023-12-20T14:52:18;7.30;78.90
83685;DHT22;73666;51.304;5.776;2023-12-20T14:57:19;7.30;79.00
83685;DHT22;73666;51.304;5.776;2023-12-20T15:02:20;7.20;79.00
83685;DHT22;73666;51.304;5.776;2023-12-20T15:07:20;7.20;79.10
83685;DHT22;73666;51.304;5.776;2023-12-20T15:12:21;7.10;79.10
83685;DHT22;73666;51.304;5.776;2023-12-20T15:17:23;7.00;79.20
83685;DHT22;73666;51.304;5.776;2023-12-20T15:22:26;7.00;79.20
83685;DHT22;73666;51.304;5.776;2023-12-20T15:27:27;7.00;79.20
83685;DHT22;73666;51.304;5.776;2023-12-20T15:32:33;7.10;79.10
83685;DHT22;73666;51.304;5.776;2023-12-20T15:37:39;7.10;79.10
83685;DHT22;73666;51.304;5.776;2023-12-20T15:42:40;7.10;79.10
83685;DHT22;73666;51.304;5.776;2023-12-20T15:47:41;7.10;79.10
83685;DHT22;73666;51.304;5.776;2023-12-20T15:52:42;7.10;79.10
83685;DHT22;73666;51.304;5.776;2023-12-20T15:57:43;7.10;79.10
83685;DHT22;73666;51.304;5.776;2023-12-20T16:02:44;7.10;79.10
83685;DHT22;73666;51.304;5.776;2023-12-20T16:07:45;7.10;79.10
83685;DHT22;73666;51.304;5.776;2023-12-20T16:12:46;7.10;79.10
83685;DHT22;73666;51.304;5.776;2023-12-20T16:17:46;7.10;79.10
83685;DHT22;73666;51.304;5.776;2023-12-20T16:22:47;7.00;79.20
83685;DHT22;73666;51.304;5.776;2023-12-20T16:27:48;7.10;79.20
83685;DHT22;73666;51.304;5.776;2023-12-20T16:32:50;7.20;79.20
83685;DHT22;73666;51.304;5.776;2023-12-20T16:37:51;7.20;79.20
83685;DHT22;73666;51.304;5.776;2023-12-20T16:42:52;7.20;79.20
83685;DHT22;73666;51.304;5.776;2023-12-20T16:47:53;7.20;79.20
83685;DHT22;73666;51.304;5.776;2023-12-20T16:52:54;7.10;79.30
83685;DHT22;73666;51.304;5.776;2023-12-20T16:57:54;7.10;79.30
83685;DHT22;73666;51.304;5.776;2023-12-20T17:02:55;7.00;79.40
83685;DHT22;73666;51.304;5.776;2023-12-20T17:07:56;7.10;79.40
83685;DHT22;73666;51.304;5.776;2023-12-20T17:12:57;7.10;79.40
83685;DHT22;73666;51.304;5.776;2023-12-20T17:18:01;7.20;79.40
83685;DHT22;73666;51.304;5.776;2023-12-20T17:23:03;7.20;79.40
83685;DHT22;73666;51.304;5.776;2023-12-20T17:28:04;7.00;79.40
83685;DHT22;73666;51.304;5.776;2023-12-20T17:33:04;7.00;79.50
83685;DHT22;73666;51.304;5.776;2023-12-20T17:38:31;7.00;79.50
83685;DHT22;73666;51.304;5.776;2023-12-20T17:43:33;7.10;79.50
83685;DHT22;73666;51.304;5.776;2023-12-20T17:48:33;7.10;79.50
83685;DHT22;73666;51.304;5.776;2023-12-20T17:53:34;7.20;79.40
83685;DHT22;73666;51.304;5.776;2023-12-20T17:58:35;7.20;79.30
83685;DHT22;73666;51.304;5.776;2023-12-20T18:03:36;7.20;79.40
83685;DHT22;73666;51.304;5.776;2023-12-20T18:08:36;7.30;79.30
83685;DHT22;73666;51.304;5.776;2023-12-20T18:13:37;7.30;79.30
83685;DHT22;73666;51.304;5.776;2023-12-20T18:18:42;7.40;79.30
83685;DHT22;73666;51.304;5.776;2023-12-20T18:23:43;7.40;79.40
83685;DHT22;73666;51.304;5.776;2023-12-20T18:28:43;7.40;79.30
83685;DHT22;73666;51.304;5.776;2023-12-20T18:33:44;7.40;79.30
83685;DHT22;73666;51.304;5.776;2023-12-20T18:38:45;7.40;79.30
83685;DHT22;73666;51.304;5.776;2023-12-20T18:43:46;7.50;79.20
83685;DHT22;73666;51.304;5.776;2023-12-20T18:48:47;7.50;79.20
83685;DHT22;73666;51.304;5.776;2023-12-20T18:53:56;7.50;79.20
83685;DHT22;73666;51.304;5.776;2023-12-20T18:58:56;7.60;79.10
83685;DHT22;73666;51.304;5.776;2023-12-20T19:03:57;7.60;79.10
83685;DHT22;73666;51.304;5.776;2023-12-20T19:08:58;7.70;79.00
83685;DHT22;73666;51.304;5.776;2023-12-20T19:14:01;7.80;79.00
83685;DHT22;73666;51.304;5.776;2023-12-20T19:19:02;7.80;79.00
83685;DHT22;73666;51.304;5.776;2023-12-20T19:24:02;7.80;79.00
83685;DHT22;73666;51.304;5.776;2023-12-20T19:29:03;7.80;79.00
83685;DHT22;73666;51.304;5.776;2023-12-20T19:34:04;7.80;78.90
83685;DHT22;73666;51.304;5.776;2023-12-20T19:39:05;7.80;78.90
83685;DHT22;73666;51.304;5.776;2023-12-20T19:44:05;7.90;78.80
83685;DHT22;73666;51.304;5.776;2023-12-20T19:49:07;7.90;78.90
83685;DHT22;73666;51.304;5.776;2023-12-20T19:54:07;7.80;78.90
83685;DHT22;73666;51.304;5.776;2023-12-20T19:59:08;7.80;79.00
83685;DHT22;73666;51.304;5.776;2023-12-20T20:04:09;7.80;79.10
83685;DHT22;73666;51.304;5.776;2023-12-20T20:09:10;7.80;79.10
83685;DHT22;73666;51.304;5.776;2023-12-20T20:14:11;7.80;79.20
83685;DHT22;73666;51.304;5.776;2023-12-20T20:19:12;7.90;79.20
83685;DHT22;73666;51.304;5.776;2023-12-20T20:24:13;7.90;79.10
83685;DHT22;73666;51.304;5.776;2023-12-20T20:29:14;7.90;79.10
83685;DHT22;73666;51.304;5.776;2023-12-20T20:34:15;7.90;79.20
83685;DHT22;73666;51.304;5.776;2023-12-20T20:39:19;7.90;79.10
83685;DHT22;73666;51.304;5.776;2023-12-20T20:44:20;7.90;79.10
83685;DHT22;73666;51.304;5.776;2023-12-20T20:49:21;8.00;79.10
83685;DHT22;73666;51.304;5.776;2023-12-20T20:54:21;8.00;79.00
83685;DHT22;73666;51.304;5.776;2023-12-20T20:59:22;8.00;78.90
83685;DHT22;73666;51.304;5.776;2023-12-20T21:04:23;8.00;78.90
83685;DHT22;73666;51.304;5.776;2023-12-20T21:09:24;8.10;78.90
83685;DHT22;73666;51.304;5.776;2023-12-20T21:14:25;8.10;78.90
83685;DHT22;73666;51.304;5.776;2023-12-20T21:19:26;8.20;78.80
83685;DHT22;73666;51.304;5.776;2023-12-20T21:24:28;8.20;78.70
83685;DHT22;73666;51.304;5.776;2023-12-20T21:29:29;8.20;78.70
83685;DHT22;73666;51.304;5.776;2023-12-20T21:34:29;8.20;78.60
83685;DHT22;73666;51.304;5.776;2023-12-20T21:39:30;8.20;78.60
83685;DHT22;73666;51.304;5.776;2023-12-20T21:44:31;8.20;78.60
83685;DHT22;73666;51.304;5.776;2023-12-20T21:49:32;8.20;78.70
83685;DHT22;73666;51.304;5.776;2023-12-20T21:54:32;8.20;79.00
83685;DHT22;73666;51.304;5.776;2023-12-20T21:59:33;8.20;79.00
83685;DHT22;73666;51.304;5.776;2023-12-20T22:04:35;8.10;79.20
83685;DHT22;73666;51.304;5.776;2023-12-20T22:09:36;8.10;79.30
83685;DHT22;73666;51.304;5.776;2023-12-20T22:14:37;8.10;79.40
83685;DHT22;73666;51.304;5.776;2023-12-20T22:19:37;8.10;79.50
83685;DHT22;73666;51.304;5.776;2023-12-20T22:24:38;8.10;79.60
83685;DHT22;73666;51.304;5.776;2023-12-20T22:29:39;8.10;79.70
83685;DHT22;73666;51.304;5.776;2023-12-20T22:34:40;8.10;79.70
83685;DHT22;73666;51.304;5.776;2023-12-20T22:39:40;8.20;79.80
83685;DHT22;73666;51.304;5.776;2023-12-20T22:44:42;8.10;79.80
83685;DHT22;73666;51.304;5.776;2023-12-20T22:49:43;8.20;79.90
83685;DHT22;73666;51.304;5.776;2023-12-20T22:54:44;8.20;79.90
83685;DHT22;73666;51.304;5.776;2023-12-20T22:59:45;8.20;80.00
83685;DHT22;73666;51.304;5.776;2023-12-20T23:04:46;8.20;80.10
83685;DHT22;73666;51.304;5.776;2023-12-20T23:09:47;8.20;80.00
83685;DHT22;73666;51.304;5.776;2023-12-20T23:14:48;8.20;80.20
83685;DHT22;73666;51.304;5.776;2023-12-20T23:19:49;8.20;80.20
83685;DHT22;73666;51.304;5.776;2023-12-20T23:24:50;8.20;80.30
83685;DHT22;73666;51.304;5.776;2023-12-20T23:29:55;8.20;80.30
83685;DHT22;73666;51.304;5.776;2023-12-20T23:34:56;8.20;80.40
83685;DHT22;73666;51.304;5.776;2023-12-20T23:39:57;8.20;80.30
83685;DHT22;73666;51.304;5.776;2023-12-20T23:44:57;8.30;80.40
83685;DHT22;73666;51.304;5.776;2023-12-20T23:49:58;8.30;80.40
83685;DHT22;73666;51.304;5.776;2023-12-20T23:55:00;8.30;80.40
